createdAt,value
2018-12-12T00:02:07.000Z,0.94
2018-12-12T00:04:35.282Z,0.86
2018-12-12T00:07:03.673Z,0.84
2018-12-12T00:09:31.956Z,0.84
2018-12-12T00:12:00.253Z,0.89
2018-12-12T00:14:28.529Z,0.91
2018-12-12T00:16:56.830Z,0.96
2018-12-12T00:19:25.337Z,0.99
2018-12-12T00:21:54.183Z,0.99
2018-12-12T00:24:22.457Z,1.12
2018-12-12T00:26:50.729Z,1.01
2018-12-12T00:29:19.009Z,0.93
2018-12-12T00:31:47.317Z,0.96
2018-12-12T00:34:15.714Z,0.94
2018-12-12T00:36:44.005Z,0.85
2018-12-12T00:39:12.679Z,0.87
2018-12-12T00:41:41.185Z,0.86
2018-12-12T00:44:10.161Z,0.90
2018-12-12T00:46:38.649Z,0.97
2018-12-12T00:49:07.064Z,1.02
2018-12-12T00:51:35.765Z,1.05
2018-12-12T00:54:04.193Z,1.12
2018-12-12T00:56:32.589Z,1.11
2018-12-12T00:59:01.441Z,1.08
2018-12-12T01:01:30.062Z,1.20
2018-12-12T01:03:58.461Z,1.16
2018-12-12T01:06:26.773Z,1.36
2018-12-12T01:08:55.057Z,1.33
2018-12-12T01:11:29.338Z,1.39
2018-12-12T01:13:58.040Z,1.37
2018-12-12T01:16:26.353Z,1.35
2018-12-12T01:18:55.160Z,1.32
2018-12-12T01:21:23.577Z,1.40
2018-12-12T01:23:51.870Z,1.27
2018-12-12T01:26:20.489Z,1.33
2018-12-12T01:28:48.793Z,1.35
2018-12-12T01:31:17.345Z,1.28
2018-12-12T01:33:45.965Z,1.21
2018-12-12T01:36:14.249Z,1.26
2018-12-12T01:38:42.571Z,1.37
2018-12-12T01:41:11.385Z,1.47
2018-12-12T01:43:39.685Z,1.24
2018-12-12T01:46:07.943Z,1.25
2018-12-12T01:48:36.254Z,1.24
2018-12-12T01:51:04.549Z,1.20
2018-12-12T01:53:33.216Z,1.26
2018-12-12T01:56:01.769Z,1.38
2018-12-12T01:58:30.249Z,1.20
2018-12-12T02:00:58.733Z,1.32
2018-12-12T02:03:27.326Z,1.53
2018-12-12T02:05:55.666Z,1.25
2018-12-12T02:08:24.317Z,1.41
2018-12-12T02:10:53.253Z,1.21
2018-12-12T02:13:36.155Z,1.22
2018-12-12T02:16:07.487Z,1.35
2018-12-12T02:18:38.750Z,1.35
2018-12-12T02:21:07.085Z,1.20
2018-12-12T02:23:36.602Z,1.43
2018-12-12T02:26:05.074Z,1.39
2018-12-12T02:28:34.098Z,1.32
2018-12-12T02:31:02.564Z,1.18
2018-12-12T02:33:30.998Z,1.24
2018-12-12T02:35:59.518Z,1.22
2018-12-12T02:38:27.866Z,1.29
2018-12-12T02:40:56.173Z,1.28
2018-12-12T02:43:24.545Z,1.19
2018-12-12T02:45:52.895Z,1.19
2018-12-12T02:48:21.263Z,1.15
2018-12-12T02:50:49.585Z,1.27
2018-12-12T02:53:18.363Z,1.21
2018-12-12T02:55:46.873Z,1.18
2018-12-12T02:58:15.209Z,1.15
2018-12-12T03:00:43.546Z,1.33
2018-12-12T03:03:12.287Z,1.22
2018-12-12T03:05:40.650Z,1.22
2018-12-12T03:08:08.994Z,1.23
2018-12-12T03:10:37.453Z,1.42
2018-12-12T03:13:05.786Z,1.35
2018-12-12T03:15:34.142Z,1.28
2018-12-12T03:18:02.462Z,1.33
2018-12-12T03:20:31.186Z,1.26
2018-12-12T03:22:59.501Z,1.19
2018-12-12T03:25:27.831Z,1.18
2018-12-12T03:27:56.128Z,1.21
2018-12-12T03:30:24.450Z,1.18
2018-12-12T03:32:52.783Z,1.22
2018-12-12T03:35:21.221Z,1.28
2018-12-12T03:37:50.005Z,1.27
2018-12-12T03:40:19.149Z,1.22
2018-12-12T03:42:48.074Z,1.28
2018-12-12T03:45:16.417Z,1.22
2018-12-12T03:47:44.721Z,1.26
2018-12-12T03:50:13.062Z,1.34
2018-12-12T03:52:41.374Z,1.17
2018-12-12T03:55:09.907Z,1.27
2018-12-12T03:57:38.352Z,1.22
2018-12-12T04:00:08.536Z,1.30
2018-12-12T04:02:36.861Z,1.27
2018-12-12T04:05:06.348Z,1.15
2018-12-12T04:07:35.084Z,1.23
2018-12-12T04:10:03.694Z,1.22
2018-12-12T04:12:32.325Z,1.26
2018-12-12T04:15:00.647Z,1.28
2018-12-12T04:17:28.968Z,1.17
2018-12-12T04:19:57.803Z,1.34
2018-12-12T04:22:26.833Z,1.23
2018-12-12T04:24:55.264Z,1.30
2018-12-12T04:27:23.586Z,1.18
2018-12-12T04:29:51.958Z,1.22
2018-12-12T04:32:20.710Z,1.35
2018-12-12T04:34:49.030Z,1.27
2018-12-12T04:37:17.472Z,1.26
2018-12-12T04:39:46.124Z,1.34
2018-12-12T04:42:14.433Z,1.26
2018-12-12T04:44:42.741Z,1.24
2018-12-12T04:47:11.085Z,1.19
2018-12-12T04:49:39.410Z,1.17
2018-12-12T04:52:08.049Z,1.22
2018-12-12T04:54:36.509Z,1.16
2018-12-12T04:57:05.198Z,1.18
2018-12-12T04:59:33.601Z,1.33
2018-12-12T05:02:01.936Z,1.33
2018-12-12T05:04:30.250Z,1.29
2018-12-12T05:06:58.572Z,1.23
2018-12-12T05:09:26.889Z,1.34
2018-12-12T05:11:55.218Z,1.14
2018-12-12T05:14:23.870Z,1.24
2018-12-12T05:16:52.369Z,1.16
2018-12-12T05:19:20.821Z,1.13
2018-12-12T05:21:49.170Z,1.16
2018-12-12T05:24:17.481Z,1.17
2018-12-12T05:26:46.653Z,1.22
2018-12-12T05:29:15.255Z,1.27
2018-12-12T05:31:43.917Z,1.24
2018-12-12T05:34:12.770Z,1.18
2018-12-12T05:36:41.095Z,1.26
2018-12-12T05:39:09.505Z,1.21
2018-12-12T05:41:37.817Z,1.20
2018-12-12T05:44:06.138Z,1.23
2018-12-12T05:46:34.490Z,1.20
2018-12-12T05:49:03.129Z,1.20
2018-12-12T05:51:31.453Z,1.22
2018-12-12T05:54:00.067Z,1.20
2018-12-12T05:56:28.387Z,1.20
2018-12-12T05:58:57.029Z,1.20
2018-12-12T06:01:25.530Z,1.25
2018-12-12T06:03:54.030Z,1.30
2018-12-12T06:06:22.477Z,1.24
2018-12-12T06:08:51.317Z,1.42
2018-12-12T06:11:19.968Z,1.46
2018-12-12T06:13:48.289Z,1.52
2018-12-12T06:16:16.613Z,1.53
2018-12-12T06:18:45.033Z,1.50
2018-12-12T06:21:13.373Z,1.55
2018-12-12T06:23:41.717Z,1.55
2018-12-12T06:26:10.337Z,1.62
2018-12-12T06:28:38.866Z,1.59
2018-12-12T06:31:07.189Z,1.55
2018-12-12T06:33:35.544Z,1.54
2018-12-12T06:36:03.846Z,1.57
2018-12-12T06:38:32.199Z,1.53
2018-12-12T06:41:00.722Z,1.50
2018-12-12T06:43:29.063Z,1.55
2018-12-12T06:45:57.377Z,1.39
2018-12-12T06:48:26.126Z,1.33
2018-12-12T06:50:54.417Z,1.27
2018-12-12T06:53:23.148Z,1.26
2018-12-12T06:55:51.605Z,1.28
2018-12-12T06:58:19.958Z,1.27
2018-12-12T07:00:48.293Z,1.31
2018-12-12T07:03:16.639Z,1.30
2018-12-12T07:05:44.969Z,1.31
2018-12-12T07:08:13.517Z,1.28
2018-12-12T07:10:41.961Z,1.34
2018-12-12T07:13:10.506Z,1.34
2018-12-12T07:15:39.277Z,1.34
2018-12-12T07:18:07.938Z,1.32
2018-12-12T07:20:36.300Z,1.35
2018-12-12T07:23:04.928Z,1.35
2018-12-12T07:25:33.458Z,1.39
2018-12-12T07:28:01.774Z,1.39
2018-12-12T07:30:30.232Z,1.46
2018-12-12T07:32:58.573Z,1.53
2018-12-12T07:35:26.907Z,1.53
2018-12-12T07:37:55.333Z,1.54
2018-12-12T07:40:23.672Z,1.64
2018-12-12T07:42:51.992Z,1.64
2018-12-12T07:45:20.757Z,1.75
2018-12-12T07:47:49.069Z,1.75
2018-12-12T07:50:17.409Z,1.63
2018-12-12T07:52:45.923Z,1.82
2018-12-12T07:55:14.244Z,1.74
2018-12-12T07:57:42.620Z,1.73
2018-12-12T08:00:11.208Z,1.80
2018-12-12T08:02:39.610Z,1.74
2018-12-12T08:05:08.061Z,1.84
2018-12-12T08:07:37.069Z,1.83
2018-12-12T08:10:06.725Z,1.86
2018-12-12T08:12:35.018Z,1.89
2018-12-12T08:15:04.090Z,1.89
2018-12-12T08:17:32.403Z,1.89
2018-12-12T08:20:01.021Z,1.96
2018-12-12T08:22:29.489Z,2.12
2018-12-12T08:24:57.995Z,2.05
2018-12-12T08:27:26.465Z,2.07
2018-12-12T08:29:54.960Z,2.20
2018-12-12T08:32:23.669Z,2.26
2018-12-12T08:34:52.377Z,2.30
2018-12-12T08:37:20.894Z,2.33
2018-12-12T08:39:49.385Z,2.42
2018-12-12T08:42:17.716Z,2.59
2018-12-12T08:44:46.033Z,2.62
2018-12-12T08:47:14.354Z,2.74
2018-12-12T08:49:42.649Z,2.86
2018-12-12T08:52:11.314Z,2.90
2018-12-12T08:54:39.637Z,3.00
2018-12-12T08:57:08.865Z,3.01
2018-12-12T08:59:37.177Z,2.89
2018-12-12T09:02:05.733Z,2.86
2018-12-12T09:04:34.021Z,2.85
2018-12-12T09:07:02.333Z,3.02
2018-12-12T09:09:30.646Z,2.81
2018-12-12T09:11:59.157Z,2.73
2018-12-12T09:14:27.502Z,2.88
2018-12-12T09:16:55.849Z,3.06
2018-12-12T09:19:24.573Z,3.55
2018-12-12T09:21:53.078Z,3.52
2018-12-12T09:24:22.046Z,3.56
2018-12-12T09:26:51.058Z,3.37
2018-12-12T09:29:19.516Z,3.63
2018-12-12T09:31:48.026Z,3.77
2018-12-12T09:34:16.339Z,3.80
2018-12-12T09:36:44.683Z,3.45
2018-12-12T09:39:12.998Z,3.46
2018-12-12T09:41:41.789Z,3.41
2018-12-12T09:44:10.610Z,3.63
2018-12-12T09:46:38.937Z,3.93
2018-12-12T09:49:07.253Z,4.22
2018-12-12T09:51:35.557Z,5.74
2018-12-12T09:54:03.997Z,8.35
2018-12-12T09:56:32.304Z,13.91
2018-12-12T09:59:00.601Z,14.64
2018-12-12T10:01:29.273Z,15.10
2018-12-12T10:03:57.773Z,16.36
2018-12-12T10:06:26.233Z,17.72
2018-12-12T10:08:54.749Z,16.05
2018-12-12T10:11:23.213Z,15.96
2018-12-12T10:13:51.701Z,12.96
2018-12-12T10:16:20.173Z,9.96
2018-12-12T10:18:48.666Z,8.74
2018-12-12T10:21:17.125Z,7.61
2018-12-12T10:23:45.877Z,7.14
2018-12-12T10:26:14.610Z,6.90
2018-12-12T10:28:43.097Z,6.49
2018-12-12T10:31:11.422Z,5.86
2018-12-12T10:33:40.074Z,5.42
2018-12-12T10:36:08.529Z,5.22
2018-12-12T10:38:36.850Z,4.83
2018-12-12T10:41:05.186Z,4.75
2018-12-12T10:43:33.998Z,4.64
2018-12-12T10:46:02.453Z,4.56
2018-12-12T10:48:30.966Z,4.49
2018-12-12T10:50:59.401Z,4.50
2018-12-12T10:53:27.897Z,4.50
2018-12-12T10:55:56.241Z,4.45
2018-12-12T10:58:24.541Z,4.31
2018-12-12T11:00:58.796Z,4.14
2018-12-12T11:03:43.938Z,4.06
2018-12-12T11:06:09.004Z,4.04
2018-12-12T11:08:37.322Z,3.94
2018-12-12T11:11:05.903Z,3.95
2018-12-12T11:13:34.702Z,3.82
2018-12-12T11:16:03.205Z,3.92
2018-12-12T11:18:31.661Z,3.86
2018-12-12T11:21:00.157Z,3.65
2018-12-12T11:23:28.628Z,3.48
2018-12-12T11:25:56.965Z,3.54
2018-12-12T11:28:25.273Z,3.54
2018-12-12T11:30:53.604Z,3.73
2018-12-12T11:33:21.927Z,3.70
2018-12-12T11:35:50.563Z,3.65
2018-12-12T11:38:18.881Z,3.51
2018-12-12T11:40:47.228Z,3.56
2018-12-12T11:43:16.577Z,3.66
2018-12-12T11:45:44.917Z,3.65
2018-12-12T11:48:13.457Z,3.72
2018-12-12T11:50:42.071Z,3.91
2018-12-12T11:53:10.408Z,4.06
2018-12-12T11:55:38.904Z,4.02
2018-12-12T11:58:07.225Z,4.29
2018-12-12T12:00:35.902Z,4.85
2018-12-12T12:03:04.338Z,5.61
2018-12-12T12:05:32.850Z,7.46
2018-12-12T12:08:01.595Z,9.73
2018-12-12T12:10:29.913Z,10.62
2018-12-12T12:12:58.345Z,8.83
2018-12-12T12:15:27.660Z,7.16
2018-12-12T12:17:56.255Z,5.88
2018-12-12T12:20:24.581Z,4.96
2018-12-12T12:22:53.010Z,4.75
2018-12-12T12:25:21.314Z,3.98
2018-12-12T12:27:49.689Z,3.87
2018-12-12T12:30:18.258Z,3.98
2018-12-12T12:32:46.575Z,4.11
2018-12-12T12:35:15.101Z,4.03
2018-12-12T12:37:44.653Z,4.07
2018-12-12T12:40:12.959Z,4.56
2018-12-12T12:42:41.277Z,4.71
2018-12-12T12:45:09.701Z,5.20
2018-12-12T12:47:38.062Z,5.15
2018-12-12T12:50:07.142Z,5.32
2018-12-12T12:52:35.478Z,5.40
2018-12-12T12:55:04.105Z,4.92
2018-12-12T12:57:32.497Z,4.92
2018-12-12T13:00:00.819Z,4.47
2018-12-12T13:02:29.462Z,4.32
2018-12-12T13:04:59.465Z,4.03
2018-12-12T13:07:27.957Z,3.93
2018-12-12T13:09:56.425Z,3.85
2018-12-12T13:12:24.738Z,3.62
2018-12-12T13:14:53.413Z,3.69
2018-12-12T13:17:21.733Z,3.45
2018-12-12T13:19:50.016Z,3.29
2018-12-12T13:22:18.325Z,3.25
2018-12-12T13:24:46.610Z,3.02
2018-12-12T13:27:14.909Z,3.05
2018-12-12T13:29:43.201Z,2.97
2018-12-12T13:32:11.805Z,2.92
2018-12-12T13:34:40.218Z,3.02
2018-12-12T13:37:08.505Z,3.01
2018-12-12T13:39:37.173Z,2.97
2018-12-12T13:42:05.681Z,3.09
2018-12-12T13:44:34.133Z,3.01
2018-12-12T13:47:02.416Z,2.82
2018-12-12T13:49:31.097Z,2.95
2018-12-12T13:51:59.697Z,3.28
2018-12-12T13:54:27.989Z,3.43
2018-12-12T13:56:56.554Z,3.86
2018-12-12T13:59:24.841Z,4.05
2018-12-12T14:01:53.122Z,3.96
2018-12-12T14:04:22.910Z,3.94
2018-12-12T14:06:51.517Z,3.92
2018-12-12T14:09:19.805Z,3.59
2018-12-12T14:11:48.077Z,3.20
2018-12-12T14:14:16.368Z,3.13
2018-12-12T14:16:44.633Z,3.11
2018-12-12T14:19:12.937Z,3.11
2018-12-12T14:21:41.205Z,3.01
2018-12-12T14:24:09.870Z,3.21
2018-12-12T14:26:38.141Z,3.32
2018-12-12T14:29:06.437Z,3.30
2018-12-12T14:31:34.709Z,3.25
2018-12-12T14:34:03.397Z,3.28
2018-12-12T14:36:31.689Z,4.16
2018-12-12T14:39:00.242Z,6.48
2018-12-12T14:41:28.522Z,7.51
2018-12-12T14:43:56.836Z,5.73
2018-12-12T14:46:25.178Z,5.09
2018-12-12T14:48:53.657Z,5.64
2018-12-12T14:51:22.029Z,6.55
2018-12-12T14:53:50.374Z,6.58
2018-12-12T14:56:19.084Z,5.36
2018-12-12T14:58:47.389Z,4.47
2018-12-12T15:01:15.669Z,3.48
2018-12-12T15:03:44.040Z,2.64
2018-12-12T15:06:12.423Z,2.16
2018-12-12T15:08:40.729Z,1.71
2018-12-12T15:11:08.998Z,1.28
2018-12-12T15:13:37.424Z,0.95
2018-12-12T15:16:05.938Z,0.79
2018-12-12T15:18:34.917Z,0.52
2018-12-12T15:21:03.192Z,0.57
2018-12-12T15:23:31.889Z,0.34
2018-12-12T15:26:00.201Z,0.33
2018-12-12T15:28:28.473Z,0.23
2018-12-12T15:30:56.829Z,0.06
2018-12-12T15:33:25.286Z,-0.05
2018-12-12T15:35:53.585Z,-0.03
2018-12-12T15:38:21.869Z,0.01
2018-12-12T15:40:50.173Z,-0.03
2018-12-12T15:43:18.459Z,-0.11
2018-12-12T15:45:46.751Z,-0.16
2018-12-12T15:48:15.042Z,-0.31
2018-12-12T15:50:43.346Z,-0.33
2018-12-12T15:53:12.085Z,-0.32
2018-12-12T15:55:40.377Z,-0.35
2018-12-12T15:58:08.682Z,-0.42
2018-12-12T16:00:37.080Z,-0.34
2018-12-12T16:03:05.575Z,-0.38
2018-12-12T16:05:33.853Z,-0.44
2018-12-12T16:08:02.359Z,-0.48
2018-12-12T16:10:30.678Z,-0.53
2018-12-12T16:12:58.961Z,-0.57
2018-12-12T16:15:27.262Z,-0.61
2018-12-12T16:17:56.257Z,-0.49
2018-12-12T16:20:24.545Z,-0.51
2018-12-12T16:22:52.874Z,-0.49
2018-12-12T16:25:21.234Z,-0.42
2018-12-12T16:27:49.514Z,-0.17
2018-12-12T16:30:17.830Z,-0.07
2018-12-12T16:32:46.101Z,0.14
2018-12-12T16:35:14.373Z,0.19
2018-12-12T16:37:42.937Z,0.27
2018-12-12T16:40:11.717Z,0.36
2018-12-12T16:42:40.009Z,0.50
2018-12-12T16:45:08.521Z,0.70
2018-12-12T16:47:36.814Z,0.74
2018-12-12T16:50:05.861Z,0.88
2018-12-12T16:52:34.169Z,1.01
2018-12-12T16:55:03.265Z,0.99
2018-12-12T16:57:31.561Z,0.98
2018-12-12T16:59:59.833Z,1.09
2018-12-12T17:02:28.233Z,1.14
2018-12-12T17:05:02.078Z,1.13
2018-12-12T17:07:26.806Z,1.10
2018-12-12T17:09:55.065Z,1.11
2018-12-12T17:12:23.372Z,1.11
2018-12-12T17:14:51.705Z,1.06
2018-12-12T17:17:19.993Z,1.10
2018-12-12T17:19:48.290Z,1.02
2018-12-12T17:22:16.597Z,1.11
2018-12-12T17:24:44.878Z,1.08
2018-12-12T17:27:13.361Z,1.07
2018-12-12T17:29:41.645Z,1.08
2018-12-12T17:32:10.381Z,1.11
2018-12-12T17:34:38.678Z,1.06
2018-12-12T17:37:06.950Z,1.07
2018-12-12T17:39:35.241Z,1.18
2018-12-12T17:42:03.554Z,1.14
2018-12-12T17:44:31.987Z,1.17
2018-12-12T17:47:00.267Z,1.20
2018-12-12T17:49:28.563Z,1.25
2018-12-12T17:51:56.833Z,1.30
2018-12-12T17:54:25.129Z,1.26
2018-12-12T17:56:53.411Z,1.23
2018-12-12T17:59:21.718Z,1.30
2018-12-12T18:01:50.406Z,1.19
2018-12-12T18:04:18.754Z,1.24
2018-12-12T18:06:47.023Z,1.25
2018-12-12T18:09:15.305Z,1.25
2018-12-12T18:11:43.727Z,1.28
2018-12-12T18:14:12.057Z,1.22
2018-12-12T18:16:40.397Z,1.27
2018-12-12T18:19:08.753Z,1.23
2018-12-12T18:21:38.021Z,1.15
2018-12-12T18:24:07.233Z,1.12
2018-12-12T18:26:37.029Z,1.02
2018-12-12T18:29:06.278Z,0.82
2018-12-12T18:31:35.085Z,0.75
2018-12-12T18:34:04.638Z,0.55
2018-12-12T18:36:33.061Z,0.56
2018-12-12T18:39:01.654Z,0.41
2018-12-12T18:41:30.058Z,0.29
2018-12-12T18:43:58.481Z,0.37
2018-12-12T18:46:26.865Z,0.29
2018-12-12T18:48:55.338Z,0.23
2018-12-12T18:51:24.098Z,0.12
2018-12-12T18:53:52.402Z,0.26
2018-12-12T18:56:20.834Z,0.17
2018-12-12T18:58:49.101Z,0.15
2018-12-12T19:01:17.393Z,0.21
2018-12-12T19:03:45.697Z,0.05
2018-12-12T19:06:14.010Z,0.02
2018-12-12T19:08:42.298Z,-0.02
2018-12-12T19:11:10.602Z,-0.01
2018-12-12T19:13:38.895Z,-0.11
2018-12-12T19:16:07.185Z,-0.11
2018-12-12T19:18:36.298Z,-0.17
2018-12-12T19:21:04.629Z,-0.29
2018-12-12T19:23:33.021Z,-0.40
2018-12-12T19:26:01.322Z,-0.31
2018-12-12T19:28:29.610Z,-0.24
2018-12-12T19:30:57.906Z,-0.33
2018-12-12T19:33:26.177Z,-0.36
2018-12-12T19:35:56.182Z,-0.38
2018-12-12T19:38:24.452Z,-0.40
2018-12-12T19:40:52.739Z,-0.51
2018-12-12T19:43:21.597Z,-0.61
2018-12-12T19:45:49.905Z,-0.59
2018-12-12T19:48:18.397Z,-0.55
2018-12-12T19:50:46.677Z,-0.51
2018-12-12T19:53:14.986Z,-0.32
2018-12-12T19:55:43.253Z,-0.29
2018-12-12T19:58:11.546Z,-0.23
2018-12-12T20:00:39.828Z,-0.19
2018-12-12T20:03:08.353Z,-0.04
2018-12-12T20:05:41.480Z,0.00
2018-12-12T20:08:07.373Z,0.08
2018-12-12T20:10:35.645Z,0.25
2018-12-12T20:13:04.656Z,0.35
2018-12-12T20:15:38.402Z,0.33
2018-12-12T20:18:07.061Z,0.24
2018-12-12T20:20:36.436Z,0.22
2018-12-12T20:23:05.366Z,0.26
2018-12-12T20:25:34.203Z,0.22
2018-12-12T20:28:02.613Z,0.21
2018-12-12T20:30:35.282Z,0.12
2018-12-12T20:33:02.178Z,0.14
2018-12-12T20:35:30.651Z,0.17
2018-12-12T20:37:59.469Z,0.28
2018-12-12T20:40:27.827Z,0.23
2018-12-12T20:42:57.204Z,0.28
2018-12-12T20:45:25.846Z,0.18
2018-12-12T20:47:54.405Z,0.13
2018-12-12T20:50:22.958Z,0.11
2018-12-12T20:52:51.663Z,-0.04
2018-12-12T20:55:20.215Z,-0.12
2018-12-12T20:57:50.325Z,-0.14
2018-12-12T21:00:18.619Z,-0.20
2018-12-12T21:02:47.008Z,-0.28
2018-12-12T21:05:15.333Z,-0.25
2018-12-12T21:07:43.619Z,-0.24
2018-12-12T21:10:11.925Z,-0.15
2018-12-12T21:12:40.196Z,0.01
2018-12-12T21:15:08.805Z,0.21
2018-12-12T21:17:37.498Z,0.26
2018-12-12T21:20:07.958Z,0.39
2018-12-12T21:22:36.237Z,0.38
2018-12-12T21:25:05.299Z,0.33
2018-12-12T21:27:33.586Z,0.47
2018-12-12T21:30:01.885Z,0.49
2018-12-12T21:32:30.160Z,0.54
2018-12-12T21:34:58.443Z,0.50
2018-12-12T21:37:27.770Z,0.59
2018-12-12T21:39:56.054Z,0.61
2018-12-12T21:42:24.337Z,0.57
2018-12-12T21:44:52.637Z,0.55
2018-12-12T21:47:20.922Z,0.64
2018-12-12T21:49:49.241Z,0.63
2018-12-12T21:52:17.865Z,0.75
2018-12-12T21:54:46.165Z,0.71
2018-12-12T21:57:14.665Z,0.60
2018-12-12T21:59:42.969Z,0.67
2018-12-12T22:02:11.241Z,0.66
2018-12-12T22:04:39.537Z,0.67
2018-12-12T22:07:07.805Z,0.68
2018-12-12T22:09:36.093Z,0.70
2018-12-12T22:12:04.477Z,0.71
2018-12-12T22:14:32.761Z,0.62
2018-12-12T22:17:01.073Z,0.58
2018-12-12T22:19:29.357Z,0.55
2018-12-12T22:21:57.670Z,0.51
2018-12-12T22:24:25.946Z,0.62
2018-12-12T22:26:54.218Z,0.67
2018-12-12T22:29:22.505Z,0.66
2018-12-12T22:31:51.233Z,0.63
2018-12-12T22:34:19.494Z,0.70
2018-12-12T22:36:47.789Z,0.66
2018-12-12T22:39:16.077Z,0.70
2018-12-12T22:41:44.389Z,0.59
2018-12-12T22:44:12.683Z,0.59
2018-12-12T22:46:40.965Z,0.58
2018-12-12T22:49:09.238Z,0.69
2018-12-12T22:51:37.633Z,0.69
2018-12-12T22:54:05.900Z,0.71
2018-12-12T22:56:34.190Z,0.68
2018-12-12T22:59:02.501Z,0.69
2018-12-12T23:01:30.893Z,0.78
2018-12-12T23:03:59.285Z,0.66
2018-12-12T23:06:27.593Z,0.66
2018-12-12T23:08:55.869Z,0.68
2018-12-12T23:11:25.384Z,0.69
2018-12-12T23:13:54.133Z,0.69
2018-12-12T23:16:22.428Z,0.67
2018-12-12T23:18:50.733Z,0.74
2018-12-12T23:21:19.005Z,0.74
2018-12-12T23:23:47.321Z,0.78
2018-12-12T23:26:15.633Z,0.68
2018-12-12T23:28:43.933Z,0.73
2018-12-12T23:31:12.209Z,0.74
2018-12-12T23:33:40.497Z,0.74
2018-12-12T23:36:08.754Z,0.69
2018-12-12T23:38:37.045Z,0.69
2018-12-12T23:41:05.313Z,0.71
2018-12-12T23:43:33.653Z,0.70
2018-12-12T23:46:02.080Z,0.70
2018-12-12T23:48:30.412Z,0.79
2018-12-12T23:50:58.737Z,0.73
2018-12-12T23:53:27.055Z,0.71
2018-12-12T23:55:55.367Z,0.71
2018-12-12T23:58:23.694Z,0.74
